Time;durP1;ratioP1;P1;durP2;ratioP2;P2;SDS_P1;SDS_P2;PMS_P1;PMS_P2;Temp;Humidity;BMP_temperature;BMP_pressure;BME280_temperature;BME280_humidity;BME280_pressure;Samples;Min_cycle;Max_cycle;Signal;HPM_P1;HPM_P2
2022/06/05 00:02:24;;;;;;;2.80;2.13;;;18.60;99.90;;;;;;5059272;28;20893;-83
2022/06/05 00:05:12;;;;;;;;;;;18.70;99.90;;;;;;5084639;28;20206;-83
2022/06/05 00:08:21;;;;;;;4.82;1.70;;;18.70;99.90;;;;;;5065913;28;20416;-83
2022/06/05 00:11:01;;;;;;;9.40;1.98;;;18.70;99.90;;;;;;5064982;28;20060;-83
2022/06/05 00:13:55;;;;;;;4.82;2.60;;;18.70;99.90;;;;;;5066632;28;20113;-83
2022/06/05 00:16:31;;;;;;;5.78;2.10;;;18.70;99.90;;;;;;5066829;28;20525;-84
2022/06/05 00:19:02;;;;;;;4.20;1.80;;;19.90;99.90;;;;;;5065077;28;20772;-83
2022/06/05 00:21:52;;;;;;;6.95;1.80;;;18.50;99.90;;;;;;5067099;28;20049;-83
2022/06/05 00:24:17;;;;;;;8.18;2.13;;;18.70;99.90;;;;;;5066655;28;20865;-83
2022/06/05 00:26:55;;;;;;;8.77;2.55;;;18.70;99.90;;;;;;5061288;28;20067;-83
2022/06/05 00:29:41;;;;;;;3.60;2.05;;;18.70;99.90;;;;;;5097882;28;20063;-83
2022/06/05 00:32:51;;;;;;;11.18;2.53;;;18.70;99.90;;;;;;5064976;28;20070;-84
2022/06/05 00:35:33;;;;;;;;;;;;;;;;;;;;;
2022/06/05 00:38:12;;;;;;;5.05;2.17;;;18.70;99.90;;;;;;5071284;28;39124;-82
2022/06/05 00:40:43;;;;;;;9.50;3.88;;;18.70;99.90;;;;;;5080501;28;20045;-83
2022/06/05 00:43:16;;;;;;;7.28;2.40;;;18.70;99.90;;;;;;5081740;28;20045;-82
2022/06/05 00:45:46;;;;;;;6.65;2.40;;;18.60;99.90;;;;;;5064223;28;20045;-82
2022/06/05 00:48:31;;;;;;;7.13;2.10;;;18.70;99.90;;;;;;5064868;28;20850;-83
2022/06/05 00:51:00;;;;;;;5.47;2.25;;;18.60;99.90;;;;;;5047846;28;20071;-82
2022/06/05 00:53:36;;;;;;;10.63;3.10;;;18.70;99.90;;;;;;5064034;28;20049;-82
2022/06/05 00:56:13;;;;;;;4.78;2.78;;;18.70;99.90;;;;;;5063715;28;20575;-82
2022/06/05 00:58:41;;;;;;;3.05;2.10;;;18.70;99.90;;;;;;5066336;28;20049;-82
2022/06/05 01:01:16;;;;;;;8.77;2.17;;;18.70;99.90;;;;;;5048586;28;20052;-82
2022/06/05 01:03:54;;;;;;;6.45;2.83;;;18.70;99.90;;;;;;5064459;28;20048;-83
2022/06/05 01:06:34;;;;;;;9.27;2.60;;;19.00;99.90;;;;;;5079783;28;20048;-82
2022/06/05 01:09:06;;;;;;;5.43;2.22;;;18.60;99.90;;;;;;5063937;28;20454;-82
2022/06/05 01:11:57;;;;;;;4.65;2.45;;;18.60;99.90;;;;;;5064601;28;20453;-82
2022/06/05 01:14:58;;;;;;;3.75;2.17;;;18.60;99.90;;;;;;5051030;28;20048;-82
2022/06/05 01:17:46;;;;;;;5.28;2.00;;;18.40;99.90;;;;;;5068226;28;20045;-82
2022/06/05 01:20:42;;;;;;;4.45;2.38;;;18.50;99.90;;;;;;5051452;28;20132;-82
2022/06/05 01:23:31;;;;;;;6.43;2.20;;;18.50;99.90;;;;;;5068353;28;20110;-82
2022/06/05 01:26:04;;;;;;;6.05;2.15;;;18.50;99.90;;;;;;5068675;28;20086;-82
2022/06/05 01:28:39;;;;;;;4.00;1.88;;;18.50;99.90;;;;;;5084251;28;20041;-82
2022/06/05 01:31:30;;;;;;;4.63;2.42;;;18.50;99.90;;;;;;5068130;28;20534;-82
2022/06/05 01:34:16;;;;;;;3.53;2.10;;;18.50;99.90;;;;;;5066923;28;20620;-82
2022/06/05 01:36:51;;;;;;;4.18;2.13;;;18.50;99.90;;;;;;5067867;28;20136;-82
2022/06/05 01:39:47;;;;;;;3.88;2.00;;;18.40;99.90;;;;;;5068059;28;20577;-82
2022/06/05 01:42:25;;;;;;;7.15;2.05;;;18.40;99.90;;;;;;5065347;28;20088;-82
2022/06/05 01:44:57;;;;;;;6.28;2.35;;;18.40;99.90;;;;;;5065878;28;20136;-82
2022/06/05 01:47:43;;;;;;;3.00;1.80;;;18.30;99.90;;;;;;5066659;28;20068;-82
2022/06/05 01:50:37;;;;;;;4.53;3.08;;;18.30;99.90;;;;;;5082769;28;20069;-82
2022/06/05 01:53:43;;;;;;;3.50;2.22;;;18.30;99.90;;;;;;5068609;28;20040;-82
2022/06/05 01:56:28;;;;;;;6.13;2.13;;;18.30;99.90;;;;;;5065646;28;20119;-82
2022/06/05 01:59:03;;;;;;;5.03;2.70;;;18.40;99.90;;;;;;5082994;28;20048;-82
2022/06/05 02:01:39;;;;;;;7.57;2.33;;;18.30;99.90;;;;;;5066319;28;20536;-81
2022/06/05 02:04:15;;;;;;;9.27;3.95;;;18.30;99.90;;;;;;5067620;28;20156;-82
2022/06/05 02:07:21;;;;;;;5.55;2.25;;;18.30;99.90;;;;;;5066083;28;20084;-82
2022/06/05 02:10:15;;;;;;;6.05;2.25;;;18.30;99.90;;;;;;5083665;28;20415;-82
2022/06/05 02:12:44;;;;;;;6.90;4.03;;;18.30;99.90;;;;;;5066635;28;20045;-82
2022/06/05 02:15:25;;;;;;;6.07;2.80;;;18.30;99.90;;;;;;5066347;28;20520;-82
2022/06/05 02:17:59;;;;;;;6.87;2.47;;;18.20;99.90;;;;;;5066710;28;20404;-82
2022/06/05 02:20:26;;;;;;;3.45;2.60;;;18.20;99.90;;;;;;5064541;28;20036;-83
2022/06/05 02:23:28;;;;;;;7.93;3.33;;;18.20;99.90;;;;;;5067332;28;21229;-82
2022/06/05 02:25:56;;;;;;;5.47;2.67;;;18.10;99.90;;;;;;5067867;28;20076;-82
2022/06/05 02:28:31;;;;;;;3.55;2.05;;;18.10;99.90;;;;;;5065932;28;20045;-82
2022/06/05 02:31:19;;;;;;;11.90;2.88;;;17.70;99.90;;;;;;5077162;28;20391;-82
2022/06/05 02:34:26;;;;;;;6.72;3.03;;;18.10;99.90;;;;;;5065679;28;20045;-82
2022/06/05 02:37:33;;;;;;;5.22;2.30;;;18.10;99.90;;;;;;5030563;28;20056;-82
2022/06/05 02:40:26;;;;;;;4.18;2.70;;;18.10;99.90;;;;;;5068257;28;20151;-82
2022/06/05 02:43:06;;;;;;;5.75;3.10;;;18.10;99.90;;;;;;5065214;28;20180;-82
2022/06/05 02:46:16;;;;;;;6.32;2.95;;;18.10;99.90;;;;;;5067006;28;20040;-82
2022/06/05 02:49:16;;;;;;;5.50;2.33;;;18.10;99.90;;;;;;5068999;28;20044;-83
2022/06/05 02:51:46;;;;;;;4.38;2.58;;;18.10;99.90;;;;;;5063440;28;20053;-82
2022/06/05 02:54:24;;;;;;;6.63;3.47;;;18.20;99.90;;;;;;5066114;28;20049;-82
2022/06/05 02:57:02;;;;;;;7.43;2.83;;;18.10;99.90;;;;;;5063488;28;20099;-82
2022/06/05 02:59:48;;;;;;;3.50;2.20;;;18.00;99.90;;;;;;5064957;28;20130;-82
2022/06/05 03:05:13;;;;;;;7.95;3.22;;;17.90;99.90;;;;;;5066613;28;20186;-82
2022/06/05 03:07:55;;;;;;;5.05;2.47;;;18.00;99.90;;;;;;5082952;28;20604;-82
2022/06/05 03:10:24;;;;;;;11.82;3.65;;;17.90;99.90;;;;;;5064785;28;20048;-82
2022/06/05 03:12:50;;;;;;;9.18;3.28;;;17.90;99.90;;;;;;5066489;28;20045;-82
2022/06/05 03:15:16;;;;;;;3.88;2.70;;;17.90;99.90;;;;;;5064495;28;20061;-81
2022/06/05 03:17:45;;;;;;;5.95;2.50;;;18.00;99.90;;;;;;5065272;28;20087;-82
2022/06/05 03:20:16;;;;;;;5.88;3.05;;;18.00;99.90;;;;;;5065455;28;20081;-82
2022/06/05 03:22:50;;;;;;;9.02;4.15;;;17.70;99.90;;;;;;5049194;28;20060;-82
2022/06/05 03:25:28;;;;;;;4.05;3.30;;;18.00;99.90;;;;;;5065814;28;20594;-81
2022/06/05 03:27:57;;;;;;;11.27;2.42;;;18.10;99.90;;;;;;5049328;28;20056;-81
2022/06/05 03:30:26;;;;;;;4.80;2.25;;;18.10;99.90;;;;;;5065239;28;20044;-82
2022/06/05 03:32:56;;;;;;;5.25;2.60;;;18.10;99.90;;;;;;5062475;28;20099;-82
2022/06/05 03:35:25;;;;;;;5.18;2.63;;;18.10;99.90;;;;;;5066056;28;20115;-81
2022/06/05 03:37:52;;;;;;;7.25;3.28;;;18.10;99.90;;;;;;5066425;28;20046;-82
2022/06/05 03:40:23;;;;;;;6.90;3.47;;;18.00;99.90;;;;;;5066477;28;20804;-82
2022/06/05 03:42:58;;;;;;;6.30;3.10;;;18.00;99.90;;;;;;5064854;28;20135;-82
2022/06/05 03:45:32;;;;;;;7.28;3.80;;;18.30;99.90;;;;;;5066820;28;20553;-82
2022/06/05 03:48:04;;;;;;;7.35;3.35;;;18.00;99.90;;;;;;5068351;28;20555;-81
2022/06/05 03:50:40;;;;;;;4.05;3.42;;;18.00;99.90;;;;;;5065667;28;20044;-81
2022/06/05 03:53:11;;;;;;;4.93;2.97;;;18.00;99.90;;;;;;5065953;28;20466;-82
2022/06/05 03:55:43;;;;;;;4.85;3.50;;;18.00;99.90;;;;;;5066982;28;20068;-82
2022/06/05 03:58:23;;;;;;;6.70;3.00;;;17.90;99.90;;;;;;5065110;28;20493;-82
2022/06/05 04:00:55;;;;;;;7.25;2.72;;;17.90;99.90;;;;;;5065148;28;20065;-82
2022/06/05 04:03:24;;;;;;;6.75;3.28;;;17.90;99.90;;;;;;5065464;28;20041;-82
2022/06/05 04:05:58;;;;;;;7.75;2.95;;;17.60;99.90;;;;;;5062606;28;20048;-82
2022/06/05 04:08:35;;;;;;;10.10;2.88;;;18.10;99.90;;;;;;5064423;28;20040;-82
2022/06/05 04:11:19;;;;;;;5.78;2.70;;;17.90;99.90;;;;;;5064686;28;20082;-83
2022/06/05 04:13:50;;;;;;;3.97;2.42;;;17.90;99.90;;;;;;5063896;28;20049;-82
2022/06/05 04:16:30;;;;;;;12.45;3.28;;;17.90;99.90;;;;;;5063806;28;20202;-82
2022/06/05 04:19:07;;;;;;;4.50;3.30;;;17.90;99.90;;;;;;5048445;28;20198;-81
2022/06/05 04:21:37;;;;;;;6.63;3.08;;;18.00;99.90;;;;;;5064400;28;20164;-81
2022/06/05 04:24:24;;;;;;;4.28;2.42;;;17.90;99.90;;;;;;5064194;28;20148;-81
2022/06/05 04:26:52;;;;;;;5.18;2.20;;;17.90;99.90;;;;;;5065244;28;20485;-81
2022/06/05 04:29:26;;;;;;;5.43;2.65;;;17.90;99.90;;;;;;5047973;28;20048;-81
2022/06/05 04:31:57;;;;;;;7.68;2.70;;;17.80;99.90;;;;;;5063172;28;20514;-82
2022/06/05 04:34:23;;;;;;;6.20;3.50;;;17.80;99.90;;;;;;5047636;28;20531;-81
2022/06/05 04:37:23;;;;;;;9.65;2.92;;;17.80;99.90;;;;;;5065969;28;20073;-82
2022/06/05 04:39:52;;;;;;;7.35;2.75;;;17.90;99.90;;;;;;5062828;28;20053;-82
2022/06/05 04:42:21;;;;;;;9.20;2.67;;;17.90;99.90;;;;;;5080570;28;20041;-81
2022/06/05 04:44:50;;;;;;;6.22;3.08;;;17.90;99.90;;;;;;5065152;28;20433;-81
2022/06/05 04:47:19;;;;;;;5.18;3.08;;;17.90;99.90;;;;;;5071143;28;20044;-82
2022/06/05 04:49:57;;;;;;;14.90;2.85;;;17.90;99.90;;;;;;5065351;28;20144;-82
2022/06/05 04:52:28;;;;;;;4.35;2.42;;;18.00;99.90;;;;;;5052264;28;20049;-82
2022/06/05 04:54:54;;;;;;;6.93;2.47;;;18.00;99.90;;;;;;5052509;28;20056;-81
2022/06/05 04:57:43;;;;;;;9.05;2.97;;;18.10;99.90;;;;;;5067594;28;20052;-81
2022/06/05 05:00:13;;;;;;;5.00;2.53;;;17.60;99.90;;;;;;5068108;28;20151;-82
2022/06/05 05:02:41;;;;;;;12.00;3.03;;;18.10;99.90;;;;;;5067921;28;20079;-82
2022/06/05 05:05:08;;;;;;;4.88;2.83;;;18.10;99.90;;;;;;5067796;28;20106;-82
2022/06/05 05:07:37;;;;;;;6.60;2.80;;;18.10;99.90;;;;;;5066026;28;20057;-81
2022/06/05 05:10:05;;;;;;;5.88;2.65;;;17.90;99.90;;;;;;5066972;28;20616;-81
2022/06/05 05:12:32;;;;;;;5.63;2.67;;;18.20;99.90;;;;;;5067255;28;20056;-81
2022/06/05 05:15:00;;;;;;;5.35;3.05;;;18.30;99.90;;;;;;5069467;28;20098;-81
2022/06/05 05:17:31;;;;;;;7.18;3.05;;;18.30;99.90;;;;;;5068084;28;20144;-81
2022/06/05 05:20:12;;;;;;;6.05;2.33;;;18.30;99.90;;;;;;5068826;28;20072;-81
2022/06/05 05:22:46;;;;;;;5.47;2.65;;;18.30;99.90;;;;;;5064828;28;20098;-81
2022/06/05 05:25:19;;;;;;;11.43;2.60;;;18.20;99.90;;;;;;5068640;28;20045;-81
2022/06/05 05:27:55;;;;;;;8.95;3.50;;;18.30;99.90;;;;;;5085237;28;20098;-82
2022/06/05 05:30:25;;;;;;;9.52;2.50;;;18.30;99.90;;;;;;5068294;28;20447;-81
2022/06/05 05:32:59;;;;;;;8.45;2.92;;;18.40;99.90;;;;;;5068020;28;20067;-81
2022/06/05 05:35:27;;;;;;;8.57;3.03;;;18.90;99.90;;;;;;5068259;28;20102;-81
2022/06/05 05:38:02;;;;;;;6.70;2.45;;;18.50;99.90;;;;;;5066164;28;20056;-81
2022/06/05 05:43:24;;;;;;;11.80;3.15;;;18.80;99.90;;;;;;5068588;28;20041;-81
2022/06/05 05:45:50;;;;;;;10.23;2.38;;;18.80;99.90;;;;;;5066697;28;20045;-81
2022/06/05 05:48:17;;;;;;;12.02;3.95;;;18.80;99.90;;;;;;5066041;28;20068;-81
2022/06/05 05:50:44;;;;;;;9.50;2.00;;;18.90;99.90;;;;;;5066984;28;20041;-82
2022/06/05 05:53:11;;;;;;;6.78;2.83;;;19.00;99.90;;;;;;5065014;28;20095;-81
2022/06/05 05:55:37;;;;;;;6.97;2.67;;;19.10;99.90;;;;;;5068953;28;20107;-81
2022/06/05 05:58:03;;;;;;;5.40;2.40;;;19.20;99.90;;;;;;5082412;28;20083;-81
2022/06/05 06:00:36;;;;;;;6.00;2.75;;;19.20;99.90;;;;;;5066262;28;20033;-82
2022/06/05 06:03:03;;;;;;;3.35;2.33;;;19.20;99.90;;;;;;5065954;28;20048;-81
2022/06/05 06:05:34;;;;;;;6.30;4.10;;;19.30;99.90;;;;;;5050061;28;20041;-82
2022/06/05 06:08:02;;;;;;;5.88;3.28;;;19.40;99.90;;;;;;5065912;28;20045;-81
2022/06/05 06:10:47;;;;;;;5.88;2.90;;;19.40;99.90;;;;;;5067047;28;20037;-81
2022/06/05 06:13:13;;;;;;;5.65;2.92;;;19.30;99.90;;;;;;5065170;28;20040;-81
2022/06/05 06:15:39;;;;;;;4.57;2.67;;;19.40;99.90;;;;;;5066001;28;20537;-81
2022/06/05 06:18:05;;;;;;;8.95;3.35;;;19.40;99.90;;;;;;5065322;28;20060;-82
2022/06/05 06:20:49;;;;;;;8.77;3.47;;;19.80;99.90;;;;;;5066324;28;20437;-82
2022/06/05 06:23:17;;;;;;;7.65;3.35;;;19.50;99.90;;;;;;5063938;28;20250;-81
2022/06/05 06:25:58;;;;;;;6.25;3.80;;;19.40;99.90;;;;;;5065052;28;20102;-81
2022/06/05 06:28:37;;;;;;;6.72;3.70;;;19.40;99.90;;;;;;5078519;28;20073;-82
2022/06/05 06:31:19;;;;;;;16.00;4.25;;;19.50;99.90;;;;;;5065217;28;20045;-82
2022/06/05 06:33:48;;;;;;;4.88;3.45;;;19.80;99.90;;;;;;5064102;28;20911;-82
2022/06/05 06:36:23;;;;;;;6.25;3.58;;;19.30;99.90;;;;;;5066367;28;20041;-82
2022/06/05 06:38:56;;;;;;;9.63;3.72;;;20.10;99.90;;;;;;5081589;28;20048;-82
2022/06/05 06:41:26;;;;;;;8.82;4.50;;;19.70;99.90;;;;;;5065686;28;20051;-82
2022/06/05 06:43:57;;;;;;;10.55;4.07;;;19.60;99.90;;;;;;5065558;28;20037;-82
2022/06/05 06:46:28;;;;;;;4.45;2.97;;;19.70;99.90;;;;;;5065988;28;20797;-82
2022/06/05 06:49:14;;;;;;;13.02;4.78;;;19.80;99.90;;;;;;5064837;28;20094;-82
2022/06/05 06:51:43;;;;;;;7.47;3.95;;;19.60;99.90;;;;;;5065530;28;20127;-82
2022/06/05 06:54:12;;;;;;;4.72;3.20;;;19.80;99.90;;;;;;5081487;28;20056;-82
2022/06/05 06:56:53;;;;;;;4.75;3.63;;;19.80;99.90;;;;;;5065464;28;20052;-81
2022/06/05 06:59:24;;;;;;;5.57;3.47;;;19.90;99.90;;;;;;5064729;28;20067;-82
2022/06/05 07:01:55;;;;;;;6.13;3.58;;;19.80;99.90;;;;;;5065578;28;20128;-81
2022/06/05 07:04:23;;;;;;;8.07;4.77;;;19.80;99.90;;;;;;5064560;28;20052;-81
2022/06/05 07:07:00;;;;;;;6.25;2.72;;;19.80;99.90;;;;;;5064792;28;20526;-81
2022/06/05 07:09:34;;;;;;;8.75;3.88;;;19.90;99.90;;;;;;5048809;28;20074;-81
2022/06/05 07:12:12;;;;;;;7.85;3.13;;;19.60;99.90;;;;;;5067967;28;20068;-82
2022/06/05 07:14:40;;;;;;;5.30;4.35;;;20.00;99.90;;;;;;5067343;28;20056;-82
2022/06/05 07:17:16;;;;;;;3.85;2.75;;;20.10;99.90;;;;;;5067174;28;20130;-81
2022/06/05 07:19:52;;;;;;;4.50;2.83;;;20.10;99.90;;;;;;5066896;28;20132;-77
2022/06/05 07:22:20;;;;;;;6.10;2.60;;;20.10;99.90;;;;;;5066786;28;20057;-77
2022/06/05 07:24:48;;;;;;;6.13;3.50;;;20.50;99.90;;;;;;5063665;28;20051;-78
2022/06/05 07:27:14;;;;;;;3.88;2.20;;;20.50;99.90;;;;;;5066261;28;20068;-78
2022/06/05 07:30:07;;;;;;;4.60;2.58;;;20.50;99.90;;;;;;5080918;28;20099;-77
2022/06/05 07:32:47;;;;;;;5.43;2.90;;;20.40;99.90;;;;;;5079139;28;20049;-77
2022/06/05 07:35:21;;;;;;;4.53;2.50;;;20.60;99.90;;;;;;5064566;28;20049;-77
2022/06/05 07:37:50;;;;;;;9.60;3.38;;;20.60;99.90;;;;;;5064540;28;20056;-78
2022/06/05 07:40:23;;;;;;;4.63;1.95;;;20.70;99.90;;;;;;5064629;28;20044;-77
2022/06/05 07:43:00;;;;;;;5.18;3.17;;;20.70;99.90;;;;;;5064299;28;20044;-77
2022/06/05 07:45:45;;;;;;;3.60;2.08;;;20.70;99.90;;;;;;5065246;28;20167;-77
2022/06/05 07:48:19;;;;;;;3.42;2.08;;;20.70;99.90;;;;;;5061984;28;20068;-78
2022/06/05 07:54:34;;;;;;;5.15;2.03;;;20.50;99.90;;;;;;5065757;28;20604;-81
2022/06/05 07:57:32;;;;;;;2.78;1.77;;;20.30;99.90;;;;;;5046991;28;20087;-78
2022/06/05 08:00:05;;;;;;;2.92;1.90;;;20.20;99.90;;;;;;5055806;28;20053;-77
2022/06/05 08:02:35;;;;;;;3.20;2.83;;;20.10;99.90;;;;;;5080328;28;20079;-78
2022/06/05 08:05:05;;;;;;;4.80;2.22;;;20.00;99.90;;;;;;5065105;28;20037;-77
2022/06/05 08:07:34;;;;;;;2.28;1.70;;;20.00;99.90;;;;;;5066187;28;20036;-77
2022/06/05 08:10:04;;;;;;;3.22;2.08;;;20.00;99.90;;;;;;5064237;28;20053;-78
2022/06/05 08:12:37;;;;;;;4.07;1.98;;;20.00;99.90;;;;;;5063049;28;20037;-78
2022/06/05 08:15:08;;;;;;;3.30;2.08;;;20.00;99.90;;;;;;5063304;28;20049;-78
2022/06/05 08:17:50;;;;;;;5.07;2.72;;;19.90;99.90;;;;;;5063957;28;20072;-78
2022/06/05 08:20:19;;;;;;;4.20;2.17;;;20.10;99.90;;;;;;5062957;28;20048;-78
2022/06/05 08:22:50;;;;;;;6.70;4.05;;;20.20;99.90;;;;;;5064738;28;20045;-78
2022/06/05 08:25:21;;;;;;;;;;;20.40;99.90;;;;;;5063477;28;20124;-78
2022/06/05 08:27:51;;;;;;;6.88;4.72;;;20.30;99.90;;;;;;5061211;28;19975;-78
2022/06/05 08:30:23;;;;;;;7.10;4.47;;;20.30;99.90;;;;;;5049968;28;20053;-76
2022/06/05 08:33:03;;;;;;;8.10;4.55;;;20.30;99.90;;;;;;5065523;28;20092;-78
2022/06/05 08:35:49;;;;;;;6.88;4.40;;;20.40;99.90;;;;;;5068125;28;20044;-77
2022/06/05 08:41:27;;;;;;;7.47;4.18;;;20.70;99.90;;;;;;5065352;28;20132;-78
2022/06/05 08:44:27;;;;;;;9.75;4.55;;;20.80;99.90;;;;;;5064074;28;20591;-77
2022/06/05 08:47:34;;;;;;;7.60;4.88;;;20.90;99.90;;;;;;5083736;28;20069;-77
2022/06/05 08:50:31;;;;;;;6.15;4.72;;;20.90;99.90;;;;;;5050858;28;20057;-77
2022/06/05 08:53:07;;;;;;;6.03;3.88;;;20.80;99.90;;;;;;5064154;28;20601;-78
2022/06/05 08:55:47;;;;;;;5.63;3.40;;;20.70;99.90;;;;;;5066035;28;20045;-78
2022/06/05 08:58:18;;;;;;;8.02;3.92;;;20.50;99.90;;;;;;5064767;28;20098;-77
2022/06/05 09:01:07;;;;;;;5.55;3.45;;;20.70;99.90;;;;;;5063404;28;20067;-77
2022/06/05 09:03:40;;;;;;;3.97;3.28;;;20.70;99.90;;;;;;5062632;28;20150;-78
2022/06/05 09:06:41;;;;;;;4.38;3.40;;;20.70;99.90;;;;;;5060928;28;20099;-77
2022/06/05 09:09:17;;;;;;;4.32;3.42;;;20.90;99.90;;;;;;5060948;28;20162;-78
2022/06/05 09:11:56;;;;;;;4.68;3.10;;;20.90;99.90;;;;;;5059717;28;21235;-77
2022/06/05 09:14:53;;;;;;;4.15;3.00;;;21.10;99.90;;;;;;5078445;28;20056;-77
2022/06/05 09:17:21;;;;;;;3.88;2.67;;;21.30;99.90;;;;;;5060275;28;20063;-78
2022/06/05 09:20:28;;;;;;;5.65;3.60;;;21.50;99.90;;;;;;5062160;28;20131;-80
2022/06/05 09:23:03;;;;;;;6.25;3.00;;;21.60;99.90;;;;;;5062986;28;20044;-76
2022/06/05 09:25:44;;;;;;;4.63;2.05;;;21.50;99.90;;;;;;5063407;28;20103;-76
2022/06/05 09:28:52;;;;;;;3.60;3.00;;;21.40;99.90;;;;;;5047127;28;20099;-76
2022/06/05 09:31:55;;;;;;;6.05;3.00;;;21.40;99.90;;;;;;5064862;28;20072;-77
2022/06/05 09:34:58;;;;;;;5.32;4.10;;;21.50;99.90;;;;;;5068280;28;20037;-76
2022/06/05 09:38:17;;;;;;;4.13;2.75;;;21.60;99.90;;;;;;5050286;28;20057;-76
2022/06/05 09:40:59;;;;;;;5.43;2.88;;;21.60;99.90;;;;;;5067520;28;20048;-77
2022/06/05 09:43:46;;;;;;;4.60;2.67;;;21.60;99.90;;;;;;5083874;28;20095;-76
2022/06/05 09:46:34;;;;;;;7.07;2.40;;;21.80;99.90;;;;;;5049644;28;20796;-76
2022/06/05 09:49:22;;;;;;;4.93;3.45;;;21.80;99.90;;;;;;5069033;28;20076;-82
2022/06/05 09:51:53;;;;;;;4.63;2.95;;;21.60;99.90;;;;;;5083902;28;20041;-81
2022/06/05 09:54:32;;;;;;;5.28;3.20;;;21.60;99.90;;;;;;5069747;28;20044;-81
2022/06/05 10:00:24;;;;;;;4.18;2.85;;;21.90;99.90;;;;;;5068602;28;20049;-81
2022/06/05 10:02:50;;;;;;;5.55;2.97;;;21.70;99.90;;;;;;5066302;28;20045;-81
2022/06/05 10:05:30;;;;;;;4.57;3.05;;;21.40;99.90;;;;;;5066387;28;20057;-81
2022/06/05 10:08:04;;;;;;;5.47;3.63;;;21.10;99.90;;;;;;5051073;28;20091;-81
2022/06/05 10:10:51;;;;;;;6.03;4.18;;;21.20;99.90;;;;;;5069018;28;20041;-81
2022/06/05 10:13:56;;;;;;;3.80;2.97;;;21.20;99.90;;;;;;5066452;28;20107;-81
2022/06/05 10:16:46;;;;;;;4.97;2.80;;;21.60;99.90;;;;;;5052557;28;20040;-82
2022/06/05 10:19:34;;;;;;;4.97;3.53;;;22.00;99.90;;;;;;5084164;28;20051;-81
2022/06/05 10:22:36;;;;;;;3.63;2.35;;;22.30;99.90;;;;;;5083449;28;20060;-81
2022/06/05 10:25:35;;;;;;;5.57;2.92;;;22.60;99.90;;;;;;5013397;28;20045;-82
2022/06/05 10:28:05;;;;;;;5.35;3.83;;;22.70;99.90;;;;;;5069287;28;20119;-82
2022/06/05 10:30:41;;;;;;;11.63;6.90;;;22.80;99.90;;;;;;5051345;28;21313;-82
2022/06/05 10:33:23;;;;;;;6.55;4.72;;;22.80;99.90;;;;;;5068674;28;20051;-82
2022/06/05 10:36:16;;;;;;;4.45;3.20;;;22.70;99.90;;;;;;5050264;28;20048;-82
2022/06/05 10:39:18;;;;;;;7.25;3.63;;;22.70;99.90;;;;;;5070064;28;20624;-81
2022/06/05 10:41:54;;;;;;;6.93;4.00;;;22.70;99.90;;;;;;5038029;28;20491;-82
2022/06/05 10:44:59;;;;;;;8.77;5.82;;;22.50;99.90;;;;;;5036519;28;20649;-81
2022/06/05 10:47:49;;;;;;;6.93;4.10;;;22.30;99.90;;;;;;5021401;28;20038;-82
2022/06/05 10:50:31;;;;;;;8.38;3.30;;;22.30;99.90;;;;;;5019370;28;20049;-81
2022/06/05 10:53:27;;;;;;;5.05;3.47;;;22.20;99.90;;;;;;5026370;28;20600;-82
2022/06/05 10:56:13;;;;;;;5.20;3.60;;;22.10;99.90;;;;;;5019149;28;20058;-82
2022/06/05 10:58:58;;;;;;;4.35;3.42;;;22.00;99.90;;;;;;5019459;28;20313;-81
2022/06/05 11:02:01;;;;;;;4.25;3.47;;;22.00;99.90;;;;;;5034591;28;20058;-82
2022/06/05 11:04:53;;;;;;;5.25;3.78;;;22.20;99.90;;;;;;5034738;28;20057;-82
2022/06/05 11:07:37;;;;;;;7.45;4.10;;;22.30;99.90;;;;;;5034707;28;20065;-81
2022/06/05 11:16:47;;;;;;;6.25;4.00;;;22.80;99.90;;;;;;5066501;28;20049;-81
2022/06/05 11:19:46;;;;;;;5.47;3.92;;;23.00;99.90;;;;;;5055272;28;20060;-80
2022/06/05 11:22:16;;;;;;;4.57;3.50;;;22.90;99.90;;;;;;5064097;28;20509;-81
2022/06/05 11:24:50;;;;;;;5.78;2.75;;;22.80;99.90;;;;;;5066191;28;20041;-81
2022/06/05 11:27:58;;;;;;;4.63;2.72;;;22.70;99.90;;;;;;5049103;28;20053;-81
2022/06/05 11:31:04;;;;;;;7.95;3.20;;;22.80;99.90;;;;;;5064163;28;20052;-81
2022/06/05 11:33:42;;;;;;;3.90;2.85;;;22.80;99.90;;;;;;5050834;28;20051;-81
2022/06/05 11:36:21;;;;;;;3.80;3.17;;;22.90;99.90;;;;;;5065217;28;20722;-81
2022/06/05 11:39:04;;;;;;;4.05;3.05;;;22.80;99.90;;;;;;5049606;28;20045;-81
2022/06/05 11:41:38;;;;;;;4.82;4.20;;;22.90;99.90;;;;;;5066499;28;20431;-81
2022/06/05 11:44:33;;;;;;;5.40;3.55;;;23.10;99.90;;;;;;5068230;28;20103;-81
2022/06/05 11:47:07;;;;;;;6.32;3.90;;;23.20;99.90;;;;;;5065061;28;20057;-81
2022/06/05 11:49:50;;;;;;;6.78;4.07;;;23.20;99.90;;;;;;5065515;28;20065;-81
2022/06/05 11:52:41;;;;;;;4.18;3.33;;;23.20;99.90;;;;;;5065581;28;20434;-81
2022/06/05 11:55:13;;;;;;;4.43;3.42;;;23.30;99.90;;;;;;5047937;28;20123;-81
2022/06/05 11:58:01;;;;;;;6.15;3.58;;;23.20;99.90;;;;;;5081682;28;20056;-81
2022/06/05 12:00:47;;;;;;;5.85;3.60;;;23.00;99.90;;;;;;5064560;28;20048;-81
2022/06/05 12:03:55;;;;;;;4.13;3.10;;;22.90;99.90;;;;;;5066233;28;20049;-81
2022/06/05 12:06:41;;;;;;;5.38;3.10;;;22.70;99.90;;;;;;5030388;28;20049;-81
2022/06/05 12:09:19;;;;;;;4.55;3.38;;;22.70;99.90;;;;;;5065908;28;20593;-81
2022/06/05 12:12:16;;;;;;;5.15;3.35;;;22.80;99.90;;;;;;5050342;28;20521;-81
2022/06/05 12:14:49;;;;;;;4.22;2.88;;;22.80;99.90;;;;;;5082242;28;20458;-81
2022/06/05 12:17:41;;;;;;;5.57;2.60;;;22.60;99.90;;;;;;5066302;28;20048;-81
2022/06/05 12:20:35;;;;;;;4.75;2.70;;;22.80;99.90;;;;;;5065883;28;20561;-81
2022/06/05 12:23:20;;;;;;;4.95;3.15;;;22.90;99.90;;;;;;5081352;28;20076;-81
2022/06/05 12:25:54;;;;;;;3.70;2.47;;;23.10;99.90;;;;;;5064353;28;20053;-82
2022/06/05 12:28:26;;;;;;;4.40;2.47;;;23.20;99.90;;;;;;5081204;28;20528;-81
2022/06/05 12:31:12;;;;;;;4.15;3.05;;;23.30;99.90;;;;;;5064559;28;20033;-82
2022/06/05 12:34:03;;;;;;;6.03;2.50;;;23.30;99.90;;;;;;5081309;28;20106;-82
2022/06/05 12:36:49;;;;;;;4.53;3.03;;;23.40;99.90;;;;;;5066498;28;20045;-81
2022/06/05 12:39:21;;;;;;;3.38;2.13;;;23.20;99.90;;;;;;5063767;28;20052;-81
2022/06/05 12:42:18;;;;;;;4.43;3.05;;;23.30;99.90;;;;;;5064551;28;20069;-82
2022/06/05 12:44:52;;;;;;;4.20;3.25;;;23.30;99.90;;;;;;5081774;28;20103;-81
2022/06/05 12:48:00;;;;;;;4.07;2.65;;;23.30;99.90;;;;;;5048095;28;20049;-81
2022/06/05 12:51:00;;;;;;;3.00;2.15;;;23.20;99.90;;;;;;5064498;28;20053;-81
2022/06/05 12:53:49;;;;;;;3.55;2.78;;;23.50;99.90;;;;;;5065779;28;20040;-81
2022/06/05 12:56:43;;;;;;;4.43;3.00;;;23.60;99.90;;;;;;5065691;28;20081;-81
2022/06/05 13:00:10;;;;;;;4.90;2.60;;;23.70;99.90;;;;;;5081698;28;20051;-81
2022/06/05 13:02:47;;;;;;;3.65;2.53;;;23.40;99.90;;;;;;4958199;28;20548;-81
2022/06/05 13:05:22;;;;;;;3.35;2.42;;;23.30;99.90;;;;;;5063715;28;20123;-81
2022/06/05 13:08:25;;;;;;;4.03;2.47;;;23.30;99.90;;;;;;5084775;28;20048;-81
2022/06/05 13:11:11;;;;;;;3.20;2.20;;;23.30;99.90;;;;;;5052287;28;20056;-81
2022/06/05 13:13:59;;;;;;;3.17;2.20;;;23.20;99.90;;;;;;5082585;28;21419;-81
2022/06/05 13:16:47;;;;;;;2.83;2.05;;;23.30;99.90;;;;;;5052196;28;20044;-81
2022/06/05 13:19:31;;;;;;;2.58;2.08;;;23.10;99.90;;;;;;5050494;28;20577;-81
2022/06/05 13:22:31;;;;;;;3.33;2.13;;;23.10;99.90;;;;;;5084170;27;20064;-81
2022/06/05 13:25:01;;;;;;;3.28;2.00;;;23.20;99.90;;;;;;5068069;28;20315;-81
2022/06/05 13:27:55;;;;;;;3.55;2.15;;;23.30;99.90;;;;;;5084303;28;20530;-82
2022/06/05 13:30:28;;;;;;;4.15;2.35;;;23.40;99.90;;;;;;5083635;28;20041;-81
2022/06/05 13:33:19;;;;;;;3.17;2.25;;;23.60;99.90;;;;;;5083715;28;20969;-81
2022/06/05 13:36:20;;;;;;;4.45;1.92;;;23.70;99.90;;;;;;5050722;28;20536;-81
2022/06/05 13:39:04;;;;;;;4.35;2.20;;;23.80;99.90;;;;;;5084849;28;20637;-81
2022/06/05 13:41:45;;;;;;;3.58;1.88;;;23.50;99.90;;;;;;5084420;28;20041;-81
2022/06/05 13:44:28;;;;;;;3.72;1.60;;;23.90;99.90;;;;;;5084351;28;20045;-81
2022/06/05 13:47:01;;;;;;;2.83;1.50;;;23.90;99.90;;;;;;5051111;28;20047;-81
2022/06/05 13:49:46;;;;;;;2.88;2.00;;;23.80;99.90;;;;;;5083716;28;20044;-81
2022/06/05 13:52:33;;;;;;;2.80;2.00;;;23.70;99.90;;;;;;5067464;28;20045;-81
2022/06/05 13:55:21;;;;;;;3.67;2.03;;;23.60;99.90;;;;;;5067237;28;20045;-81
2022/06/05 13:58:20;;;;;;;3.17;1.98;;;23.80;99.90;;;;;;5071354;28;20052;-81
2022/06/05 14:01:18;;;;;;;3.10;2.03;;;23.70;99.90;;;;;;5070077;28;20079;-80
2022/06/05 14:03:52;;;;;;;2.65;1.65;;;23.70;99.90;;;;;;5070668;28;20090;-81
2022/06/05 14:06:32;;;;;;;4.38;1.60;;;23.50;99.90;;;;;;5068687;28;20060;-81
2022/06/05 14:09:08;;;;;;;3.00;1.75;;;23.40;99.90;;;;;;5051218;28;20557;-81
2022/06/05 14:11:36;;;;;;;2.45;1.60;;;23.50;99.90;;;;;;5069924;28;20052;-81
2022/06/05 14:14:06;;;;;;;2.10;1.30;;;23.50;99.90;;;;;;5068328;28;20530;-81
2022/06/05 14:16:51;;;;;;;2.65;1.38;;;23.60;99.90;;;;;;5066782;28;20099;-81
2022/06/05 14:19:23;;;;;;;2.25;1.50;;;23.60;99.90;;;;;;5066527;28;20560;-81